sensor_id;sensor_type;location;lat;lon;timestamp;pressure;altitude;pressure_sealevel;temperature;humidity
8416;BME280;4245;42.120;24.732;2022-08-03T00:01:22;99154.75;;;25.41;58.17
8416;BME280;4245;42.120;24.732;2022-08-03T00:03:50;99158.09;;;25.49;57.75
8416;BME280;4245;42.120;24.732;2022-08-03T00:06:17;99153.69;;;25.42;58.17
8416;BME280;4245;42.120;24.732;2022-08-03T00:08:44;99142.59;;;25.30;58.52
8416;BME280;4245;42.120;24.732;2022-08-03T00:11:11;99145.91;;;25.32;58.59
8416;BME280;4245;42.120;24.732;2022-08-03T00:13:38;99148.53;;;25.60;57.40
8416;BME280;4245;42.120;24.732;2022-08-03T00:16:05;99155.59;;;25.48;57.28
8416;BME280;4245;42.120;24.732;2022-08-03T00:18:31;99154.72;;;25.34;57.71
8416;BME280;4245;42.120;24.732;2022-08-03T00:21:00;99159.28;;;25.27;58.17
8416;BME280;4245;42.120;24.732;2022-08-03T00:23:27;99153.81;;;25.07;58.66
8416;BME280;4245;42.120;24.732;2022-08-03T00:25:54;99155.47;;;25.02;58.95
8416;BME280;4245;42.120;24.732;2022-08-03T00:28:21;99153.00;;;25.20;58.85
8416;BME280;4245;42.120;24.732;2022-08-03T00:30:48;99143.78;;;25.15;59.24
8416;BME280;4245;42.120;24.732;2022-08-03T00:33:14;99145.44;;;25.02;59.64
8416;BME280;4245;42.120;24.732;2022-08-03T00:35:42;99145.59;;;24.94;59.39
8416;BME280;4245;42.120;24.732;2022-08-03T00:38:10;99155.09;;;24.77;60.39
8416;BME280;4245;42.120;24.732;2022-08-03T00:40:37;99147.91;;;24.63;61.23
8416;BME280;4245;42.120;24.732;2022-08-03T00:43:05;99153.13;;;24.64;61.05
8416;BME280;4245;42.120;24.732;2022-08-03T00:45:34;99147.09;;;24.69;60.98
8416;BME280;4245;42.120;24.732;2022-08-03T00:48:01;99155.94;;;24.78;60.92
8416;BME280;4245;42.120;24.732;2022-08-03T00:50:31;99156.22;;;24.89;60.11
8416;BME280;4245;42.120;24.732;2022-08-03T00:53:01;99162.53;;;25.03;59.80
8416;BME280;4245;42.120;24.732;2022-08-03T00:55:30;99154.63;;;25.08;59.74
8416;BME280;4245;42.120;24.732;2022-08-03T00:57:57;99157.41;;;25.28;58.95
8416;BME280;4245;42.120;24.732;2022-08-03T01:00:26;99148.00;;;25.24;58.96
8416;BME280;4245;42.120;24.732;2022-08-03T01:02:53;99150.09;;;25.22;58.92
8416;BME280;4245;42.120;24.732;2022-08-03T01:05:20;99154.00;;;25.13;59.23
8416;BME280;4245;42.120;24.732;2022-08-03T01:08:01;99152.31;;;25.05;59.32
8416;BME280;4245;42.120;24.732;2022-08-03T01:10:36;99154.38;;;25.03;59.53
8416;BME280;4245;42.120;24.732;2022-08-03T01:13:27;99151.72;;;25.09;58.72
8416;BME280;4245;42.120;24.732;2022-08-03T01:16:05;99150.88;;;25.02;58.87
8416;BME280;4245;42.120;24.732;2022-08-03T01:18:38;99157.94;;;24.97;59.12
8416;BME280;4245;42.120;24.732;2022-08-03T01:21:11;99157.94;;;24.97;59.38
8416;BME280;4245;42.120;24.732;2022-08-03T01:23:51;99160.00;;;24.88;59.35
8416;BME280;4245;42.120;24.732;2022-08-03T01:26:47;99155.91;;;24.71;60.31
8416;BME280;4245;42.120;24.732;2022-08-03T01:32:25;99158.19;;;24.67;60.89
8416;BME280;4245;42.120;24.732;2022-08-03T01:34:58;99162.66;;;24.82;60.73
8416;BME280;4245;42.120;24.732;2022-08-03T01:37:31;99163.75;;;24.87;60.18
8416;BME280;4245;42.120;24.732;2022-08-03T01:40:01;99163.47;;;24.82;60.59
8416;BME280;4245;42.120;24.732;2022-08-03T01:42:29;99163.88;;;24.79;60.80
8416;BME280;4245;42.120;24.732;2022-08-03T01:44:59;99163.78;;;24.32;62.62
8416;BME280;4245;42.120;24.732;2022-08-03T01:47:28;99164.38;;;24.20;63.58
8416;BME280;4245;42.120;24.732;2022-08-03T01:49:56;99159.56;;;24.01;64.36
8416;BME280;4245;42.120;24.732;2022-08-03T01:52:25;99156.63;;;23.75;65.85
8416;BME280;4245;42.120;24.732;2022-08-03T01:54:52;99164.19;;;23.79;65.86
8416;BME280;4245;42.120;24.732;2022-08-03T01:57:21;99166.44;;;23.76;66.41
8416;BME280;4245;42.120;24.732;2022-08-03T01:59:49;99168.53;;;23.53;68.08
8416;BME280;4245;42.120;24.732;2022-08-03T02:02:20;99163.53;;;23.56;68.20
8416;BME280;4245;42.120;24.732;2022-08-03T02:04:48;99165.59;;;23.75;67.37
8416;BME280;4245;42.120;24.732;2022-08-03T02:07:16;99170.03;;;23.83;66.65
8416;BME280;4245;42.120;24.732;2022-08-03T02:09:50;99163.41;;;23.86;66.73
8416;BME280;4245;42.120;24.732;2022-08-03T02:12:17;99173.00;;;24.09;65.43
8416;BME280;4245;42.120;24.732;2022-08-03T02:14:47;99168.38;;;23.82;66.38
8416;BME280;4245;42.120;24.732;2022-08-03T02:17:15;99170.25;;;23.60;67.03
8416;BME280;4245;42.120;24.732;2022-08-03T02:19:44;99171.34;;;23.30;68.58
8416;BME280;4245;42.120;24.732;2022-08-03T02:22:11;99175.13;;;23.14;69.18
8416;BME280;4245;42.120;24.732;2022-08-03T02:24:39;99163.69;;;22.98;69.57
8416;BME280;4245;42.120;24.732;2022-08-03T02:27:11;99161.13;;;23.11;69.31
8416;BME280;4245;42.120;24.732;2022-08-03T02:29:41;99165.50;;;23.12;69.30
8416;BME280;4245;42.120;24.732;2022-08-03T02:32:15;99166.34;;;23.12;69.66
8416;BME280;4245;42.120;24.732;2022-08-03T02:34:47;99159.91;;;23.13;69.07
8416;BME280;4245;42.120;24.732;2022-08-03T02:37:18;99169.59;;;23.22;69.31
8416;BME280;4245;42.120;24.732;2022-08-03T02:39:46;99163.84;;;23.11;69.27
8416;BME280;4245;42.120;24.732;2022-08-03T02:42:14;99167.16;;;23.27;69.02
8416;BME280;4245;42.120;24.732;2022-08-03T02:44:43;99166.91;;;23.44;68.13
8416;BME280;4245;42.120;24.732;2022-08-03T02:47:13;99162.03;;;23.54;67.79
8416;BME280;4245;42.120;24.732;2022-08-03T02:49:44;99166.81;;;23.73;66.95
8416;BME280;4245;42.120;24.732;2022-08-03T02:52:13;99172.91;;;23.96;65.53
8416;BME280;4245;42.120;24.732;2022-08-03T02:54:42;99171.50;;;24.07;64.83
8416;BME280;4245;42.120;24.732;2022-08-03T02:57:10;99173.56;;;24.26;64.15
8416;BME280;4245;42.120;24.732;2022-08-03T02:59:38;99176.41;;;24.39;62.97
8416;BME280;4245;42.120;24.732;2022-08-03T03:02:06;99188.13;;;24.46;62.98
8416;BME280;4245;42.120;24.732;2022-08-03T03:04:35;99185.72;;;24.58;62.42
8416;BME280;4245;42.120;24.732;2022-08-03T03:07:04;99189.50;;;24.63;61.99
8416;BME280;4245;42.120;24.732;2022-08-03T03:09:31;99192.09;;;24.78;61.11
8416;BME280;4245;42.120;24.732;2022-08-03T03:11:59;99179.97;;;24.81;60.44
8416;BME280;4245;42.120;24.732;2022-08-03T03:14:27;99183.06;;;24.71;61.05
8416;BME280;4245;42.120;24.732;2022-08-03T03:16:54;99190.50;;;24.56;61.61
8416;BME280;4245;42.120;24.732;2022-08-03T03:19:22;99195.72;;;24.57;61.60
8416;BME280;4245;42.120;24.732;2022-08-03T03:21:50;99194.59;;;24.45;62.21
8416;BME280;4245;42.120;24.732;2022-08-03T03:24:20;99184.78;;;24.44;62.40
8416;BME280;4245;42.120;24.732;2022-08-03T03:26:47;99198.13;;;24.39;62.03
8416;BME280;4245;42.120;24.732;2022-08-03T03:29:15;99199.38;;;24.15;63.37
8416;BME280;4245;42.120;24.732;2022-08-03T03:31:42;99205.94;;;24.06;63.67
8416;BME280;4245;42.120;24.732;2022-08-03T03:34:09;99207.44;;;24.09;63.49
8416;BME280;4245;42.120;24.732;2022-08-03T03:36:36;99208.25;;;24.31;63.30
8416;BME280;4245;42.120;24.732;2022-08-03T03:39:02;99212.22;;;24.56;61.89
8416;BME280;4245;42.120;24.732;2022-08-03T03:41:31;99217.16;;;24.74;60.80
8416;BME280;4245;42.120;24.732;2022-08-03T03:43:58;99211.97;;;24.85;60.27
8416;BME280;4245;42.120;24.732;2022-08-03T03:46:25;99226.25;;;24.87;60.33
8416;BME280;4245;42.120;24.732;2022-08-03T03:48:52;99228.56;;;24.90;59.97
8416;BME280;4245;42.120;24.732;2022-08-03T03:51:19;99220.41;;;24.90;59.83
8416;BME280;4245;42.120;24.732;2022-08-03T03:54:03;99215.72;;;24.78;60.57
8416;BME280;4245;42.120;24.732;2022-08-03T03:56:32;99229.31;;;24.84;59.93
8416;BME280;4245;42.120;24.732;2022-08-03T03:58:59;99228.22;;;24.72;60.45
8416;BME280;4245;42.120;24.732;2022-08-03T04:01:27;99232.97;;;24.63;60.98
8416;BME280;4245;42.120;24.732;2022-08-03T04:03:54;99231.13;;;24.43;61.39
8416;BME280;4245;42.120;24.732;2022-08-03T04:06:21;99239.28;;;24.43;61.96
8416;BME280;4245;42.120;24.732;2022-08-03T04:09:02;99233.50;;;24.52;62.01
8416;BME280;4245;42.120;24.732;2022-08-03T04:11:50;99239.03;;;24.38;62.28
8416;BME280;4245;42.120;24.732;2022-08-03T04:14:20;99236.16;;;24.46;62.30
8416;BME280;4245;42.120;24.732;2022-08-03T04:16:50;99238.16;;;24.58;60.99
8416;BME280;4245;42.120;24.732;2022-08-03T04:19:27;99243.97;;;24.55;61.32
8416;BME280;4245;42.120;24.732;2022-08-03T04:21:59;99245.75;;;24.42;62.20
8416;BME280;4245;42.120;24.732;2022-08-03T04:24:31;99249.97;;;24.44;62.08
8416;BME280;4245;42.120;24.732;2022-08-03T04:27:03;99249.63;;;24.60;61.15
8416;BME280;4245;42.120;24.732;2022-08-03T04:29:34;99249.44;;;24.34;61.87
8416;BME280;4245;42.120;24.732;2022-08-03T04:32:04;99246.91;;;24.11;62.94
8416;BME280;4245;42.120;24.732;2022-08-03T04:34:32;99256.19;;;24.17;62.69
8416;BME280;4245;42.120;24.732;2022-08-03T04:37:01;99257.13;;;24.09;63.62
8416;BME280;4245;42.120;24.732;2022-08-03T04:39:31;99251.06;;;23.86;63.86
8416;BME280;4245;42.120;24.732;2022-08-03T04:42:02;99250.28;;;23.71;64.89
8416;BME280;4245;42.120;24.732;2022-08-03T04:44:30;99252.50;;;23.67;65.52
8416;BME280;4245;42.120;24.732;2022-08-03T04:47:01;99247.09;;;23.67;65.55
8416;BME280;4245;42.120;24.732;2022-08-03T04:49:29;99259.19;;;23.86;64.88
8416;BME280;4245;42.120;24.732;2022-08-03T04:51:56;99256.84;;;23.83;64.47
8416;BME280;4245;42.120;24.732;2022-08-03T04:54:23;99262.31;;;24.04;64.22
8416;BME280;4245;42.120;24.732;2022-08-03T04:56:49;99265.59;;;24.21;63.06
8416;BME280;4245;42.120;24.732;2022-08-03T04:59:18;99268.06;;;24.37;62.66
8416;BME280;4245;42.120;24.732;2022-08-03T05:01:44;99269.66;;;24.32;62.58
8416;BME280;4245;42.120;24.732;2022-08-03T05:04:11;99270.63;;;24.45;62.02
8416;BME280;4245;42.120;24.732;2022-08-03T05:06:38;99268.25;;;24.36;62.33
8416;BME280;4245;42.120;24.732;2022-08-03T05:09:05;99271.16;;;24.34;62.74
8416;BME280;4245;42.120;24.732;2022-08-03T05:11:32;99278.66;;;24.53;61.62
8416;BME280;4245;42.120;24.732;2022-08-03T05:13:59;99277.03;;;24.65;61.15
8416;BME280;4245;42.120;24.732;2022-08-03T05:16:27;99276.25;;;24.72;61.00
8416;BME280;4245;42.120;24.732;2022-08-03T05:18:54;99275.50;;;24.84;59.99
8416;BME280;4245;42.120;24.732;2022-08-03T05:21:21;99283.56;;;24.71;60.27
8416;BME280;4245;42.120;24.732;2022-08-03T05:23:48;99277.28;;;24.43;61.27
8416;BME280;4245;42.120;24.732;2022-08-03T05:26:15;99273.03;;;23.91;63.30
8416;BME280;4245;42.120;24.732;2022-08-03T05:28:41;99281.53;;;23.88;65.05
8416;BME280;4245;42.120;24.732;2022-08-03T05:31:08;99287.75;;;24.03;65.25
8416;BME280;4245;42.120;24.732;2022-08-03T05:33:39;99290.81;;;24.15;65.08
8416;BME280;4245;42.120;24.732;2022-08-03T05:36:06;99288.56;;;24.18;65.36
8416;BME280;4245;42.120;24.732;2022-08-03T05:38:32;99292.50;;;24.37;64.39
8416;BME280;4245;42.120;24.732;2022-08-03T05:41:01;99301.91;;;24.62;63.74
8416;BME280;4245;42.120;24.732;2022-08-03T05:43:28;99302.78;;;24.91;62.45
8416;BME280;4245;42.120;24.732;2022-08-03T05:45:56;99297.16;;;24.99;61.58
8416;BME280;4245;42.120;24.732;2022-08-03T05:48:23;99305.13;;;25.00;61.66
8416;BME280;4245;42.120;24.732;2022-08-03T05:50:52;99301.50;;;25.21;61.20
8416;BME280;4245;42.120;24.732;2022-08-03T05:53:18;99308.81;;;25.55;59.77
8416;BME280;4245;42.120;24.732;2022-08-03T05:55:45;99305.56;;;25.79;58.95
8416;BME280;4245;42.120;24.732;2022-08-03T05:58:12;99296.38;;;26.00;57.71
8416;BME280;4245;42.120;24.732;2022-08-03T06:00:39;99301.00;;;26.06;57.19
8416;BME280;4245;42.120;24.732;2022-08-03T06:03:06;99301.41;;;25.96;57.43
8416;BME280;4245;42.120;24.732;2022-08-03T06:05:32;99306.22;;;26.01;57.35
8416;BME280;4245;42.120;24.732;2022-08-03T06:08:02;99303.31;;;26.16;56.82
8416;BME280;4245;42.120;24.732;2022-08-03T06:10:29;99302.47;;;26.15;56.35
8416;BME280;4245;42.120;24.732;2022-08-03T06:12:56;99302.94;;;26.19;56.04
8416;BME280;4245;42.120;24.732;2022-08-03T06:15:23;99309.06;;;26.47;55.56
8416;BME280;4245;42.120;24.732;2022-08-03T06:17:50;99305.06;;;26.63;54.30
8416;BME280;4245;42.120;24.732;2022-08-03T06:20:18;99318.91;;;26.68;53.95
8416;BME280;4245;42.120;24.732;2022-08-03T06:22:46;99313.66;;;26.93;53.20
8416;BME280;4245;42.120;24.732;2022-08-03T06:25:14;99309.88;;;27.07;52.63
8416;BME280;4245;42.120;24.732;2022-08-03T06:27:41;99316.38;;;27.19;52.34
8416;BME280;4245;42.120;24.732;2022-08-03T06:30:09;99318.66;;;27.22;52.68
8416;BME280;4245;42.120;24.732;2022-08-03T06:32:37;99326.19;;;27.40;52.14
8416;BME280;4245;42.120;24.732;2022-08-03T06:35:04;99322.78;;;27.64;51.20
8416;BME280;4245;42.120;24.732;2022-08-03T06:37:31;99319.28;;;27.88;49.52
8416;BME280;4245;42.120;24.732;2022-08-03T06:40:08;99324.47;;;28.03;49.04
8416;BME280;4245;42.120;24.732;2022-08-03T06:42:36;99326.50;;;28.14;48.33
8416;BME280;4245;42.120;24.732;2022-08-03T06:47:35;99332.56;;;28.54;47.46
8416;BME280;4245;42.120;24.732;2022-08-03T06:50:03;99332.97;;;28.82;46.63
8416;BME280;4245;42.120;24.732;2022-08-03T06:52:30;99330.53;;;28.99;45.71
8416;BME280;4245;42.120;24.732;2022-08-03T06:54:57;99322.50;;;29.22;45.18
8416;BME280;4245;42.120;24.732;2022-08-03T06:57:24;99329.38;;;29.31;45.32
8416;BME280;4245;42.120;24.732;2022-08-03T06:59:52;99329.38;;;29.50;44.60
8416;BME280;4245;42.120;24.732;2022-08-03T07:02:20;99326.41;;;29.69;43.67
8416;BME280;4245;42.120;24.732;2022-08-03T07:04:47;99329.00;;;29.46;44.30
8416;BME280;4245;42.120;24.732;2022-08-03T07:07:14;99327.69;;;29.30;44.08
8416;BME280;4245;42.120;24.732;2022-08-03T07:09:41;99318.59;;;29.36;43.75
8416;BME280;4245;42.120;24.732;2022-08-03T07:12:08;99327.09;;;29.47;43.48
8416;BME280;4245;42.120;24.732;2022-08-03T07:14:35;99325.09;;;29.54;43.19
8416;BME280;4245;42.120;24.732;2022-08-03T07:17:04;99327.53;;;29.98;42.02
8416;BME280;4245;42.120;24.732;2022-08-03T07:19:31;99320.13;;;30.29;41.20
8416;BME280;4245;42.120;24.732;2022-08-03T07:21:58;99319.47;;;30.45;40.82
8416;BME280;4245;42.120;24.732;2022-08-03T07:24:24;99316.97;;;30.43;41.02
8416;BME280;4245;42.120;24.732;2022-08-03T07:26:51;99317.88;;;30.37;41.22
8416;BME280;4245;42.120;24.732;2022-08-03T07:29:18;99321.06;;;30.22;41.33
8416;BME280;4245;42.120;24.732;2022-08-03T07:31:45;99323.16;;;30.39;41.20
8416;BME280;4245;42.120;24.732;2022-08-03T07:34:14;99324.56;;;30.83;40.30
8416;BME280;4245;42.120;24.732;2022-08-03T07:36:41;99329.41;;;30.57;40.18
8416;BME280;4245;42.120;24.732;2022-08-03T07:39:08;99332.88;;;30.53;40.58
8416;BME280;4245;42.120;24.732;2022-08-03T07:41:35;99327.28;;;30.59;40.57
8416;BME280;4245;42.120;24.732;2022-08-03T07:44:02;99328.88;;;30.79;40.06
8416;BME280;4245;42.120;24.732;2022-08-03T07:46:29;99334.34;;;30.79;40.59
8416;BME280;4245;42.120;24.732;2022-08-03T07:48:56;99329.97;;;31.24;40.05
8416;BME280;4245;42.120;24.732;2022-08-03T07:51:24;99339.88;;;31.02;40.30
8416;BME280;4245;42.120;24.732;2022-08-03T07:53:51;99333.31;;;31.26;39.78
8416;BME280;4245;42.120;24.732;2022-08-03T07:56:18;99329.41;;;31.85;39.36
8416;BME280;4245;42.120;24.732;2022-08-03T07:58:45;99340.59;;;32.52;37.92
8416;BME280;4245;42.120;24.732;2022-08-03T08:01:12;99335.09;;;33.02;37.19
8416;BME280;4245;42.120;24.732;2022-08-03T08:03:39;99346.84;;;33.48;36.03
8416;BME280;4245;42.120;24.732;2022-08-03T08:06:06;99350.94;;;33.84;35.33
8416;BME280;4245;42.120;24.732;2022-08-03T08:08:35;99347.69;;;34.14;34.72
8416;BME280;4245;42.120;24.732;2022-08-03T08:11:03;99350.84;;;34.49;34.65
8416;BME280;4245;42.120;24.732;2022-08-03T08:13:30;99353.81;;;34.69;34.14
8416;BME280;4245;42.120;24.732;2022-08-03T08:15:57;99348.16;;;34.86;33.72
8416;BME280;4245;42.120;24.732;2022-08-03T08:18:24;99350.44;;;34.94;33.34
8416;BME280;4245;42.120;24.732;2022-08-03T08:20:54;99345.56;;;34.47;34.10
8416;BME280;4245;42.120;24.732;2022-08-03T08:23:21;99348.16;;;34.27;34.38
8416;BME280;4245;42.120;24.732;2022-08-03T08:25:50;99350.69;;;34.61;34.02
8416;BME280;4245;42.120;24.732;2022-08-03T08:28:17;99340.25;;;34.36;34.88
8416;BME280;4245;42.120;24.732;2022-08-03T08:30:45;99345.16;;;34.61;34.91
8416;BME280;4245;42.120;24.732;2022-08-03T08:33:12;99338.66;;;35.04;34.21
8416;BME280;4245;42.120;24.732;2022-08-03T08:35:39;99340.56;;;35.03;33.55
8416;BME280;4245;42.120;24.732;2022-08-03T08:38:06;99336.88;;;35.66;33.35
8416;BME280;4245;42.120;24.732;2022-08-03T08:40:33;99335.44;;;36.16;32.12
8416;BME280;4245;42.120;24.732;2022-08-03T08:43:01;99339.34;;;36.40;31.52
8416;BME280;4245;42.120;24.732;2022-08-03T08:45:28;99338.78;;;36.43;31.38
8416;BME280;4245;42.120;24.732;2022-08-03T08:47:56;99343.78;;;36.51;31.49
8416;BME280;4245;42.120;24.732;2022-08-03T08:50:27;99340.69;;;36.23;31.18
8416;BME280;4245;42.120;24.732;2022-08-03T08:52:55;99348.50;;;35.73;31.50
8416;BME280;4245;42.120;24.732;2022-08-03T08:55:26;99340.16;;;34.84;32.94
8416;BME280;4245;42.120;24.732;2022-08-03T08:57:56;99347.66;;;34.89;33.55
8416;BME280;4245;42.120;24.732;2022-08-03T09:00:26;99340.16;;;35.21;33.14
8416;BME280;4245;42.120;24.732;2022-08-03T09:02:55;99344.59;;;35.69;32.22
8416;BME280;4245;42.120;24.732;2022-08-03T09:05:22;99340.16;;;36.26;31.41
8416;BME280;4245;42.120;24.732;2022-08-03T09:07:49;99339.13;;;36.77;30.47
8416;BME280;4245;42.120;24.732;2022-08-03T09:10:17;99345.47;;;37.18;29.78
8416;BME280;4245;42.120;24.732;2022-08-03T09:12:48;99346.50;;;37.58;29.22
8416;BME280;4245;42.120;24.732;2022-08-03T09:15:21;99345.13;;;37.50;29.46
8416;BME280;4245;42.120;24.732;2022-08-03T09:17:51;99344.94;;;36.76;29.66
8416;BME280;4245;42.120;24.732;2022-08-03T09:20:20;99335.19;;;36.48;29.83
8416;BME280;4245;42.120;24.732;2022-08-03T09:22:56;99338.53;;;36.50;29.61
8416;BME280;4245;42.120;24.732;2022-08-03T09:25:31;99336.69;;;35.93;30.83
8416;BME280;4245;42.120;24.732;2022-08-03T09:28:07;99330.50;;;36.53;30.28
8416;BME280;4245;42.120;24.732;2022-08-03T09:30:35;99324.44;;;36.97;29.72
8416;BME280;4245;42.120;24.732;2022-08-03T09:33:06;99331.25;;;37.70;28.98
8416;BME280;4245;42.120;24.732;2022-08-03T09:35:39;99328.75;;;38.28;28.17
8416;BME280;4245;42.120;24.732;2022-08-03T09:38:11;99327.81;;;38.82;27.17
8416;BME280;4245;42.120;24.732;2022-08-03T09:40:38;99335.41;;;39.05;27.03
8416;BME280;4245;42.120;24.732;2022-08-03T09:43:05;99329.22;;;39.42;26.06
8416;BME280;4245;42.120;24.732;2022-08-03T09:45:33;99325.50;;;39.75;25.72
8416;BME280;4245;42.120;24.732;2022-08-03T09:48:22;99316.28;;;39.27;25.42
8416;BME280;4245;42.120;24.732;2022-08-03T09:50:50;99315.25;;;39.18;26.46
8416;BME280;4245;42.120;24.732;2022-08-03T09:53:17;99313.03;;;38.91;26.24
8416;BME280;4245;42.120;24.732;2022-08-03T09:55:52;99306.97;;;38.50;26.75
8416;BME280;4245;42.120;24.732;2022-08-03T09:58:20;99303.75;;;38.72;26.58
8416;BME280;4245;42.120;24.732;2022-08-03T10:00:55;99303.75;;;39.30;25.95
8416;BME280;4245;42.120;24.732;2022-08-03T10:03:25;99305.47;;;39.73;25.96
8416;BME280;4245;42.120;24.732;2022-08-03T10:05:52;99297.63;;;39.80;25.57
8416;BME280;4245;42.120;24.732;2022-08-03T10:08:20;99302.06;;;40.00;25.34
8416;BME280;4245;42.120;24.732;2022-08-03T10:10:48;99298.50;;;40.37;24.69
8416;BME280;4245;42.120;24.732;2022-08-03T10:13:19;99302.56;;;40.45;24.03
8416;BME280;4245;42.120;24.732;2022-08-03T10:15:46;99296.91;;;40.50;23.92
8416;BME280;4245;42.120;24.732;2022-08-03T10:18:14;99299.09;;;39.73;25.04
8416;BME280;4245;42.120;24.732;2022-08-03T10:20:45;99297.78;;;39.41;25.34
8416;BME280;4245;42.120;24.732;2022-08-03T10:23:16;99293.53;;;38.96;26.32
8416;BME280;4245;42.120;24.732;2022-08-03T10:25:46;99289.50;;;38.40;27.30
8416;BME280;4245;42.120;24.732;2022-08-03T10:28:15;99298.09;;;38.04;27.55
8416;BME280;4245;42.120;24.732;2022-08-03T10:30:47;99287.97;;;37.74;27.92
8416;BME280;4245;42.120;24.732;2022-08-03T10:33:17;99287.28;;;37.23;28.52
8416;BME280;4245;42.120;24.732;2022-08-03T10:35:50;99285.94;;;36.95;29.30
8416;BME280;4245;42.120;24.732;2022-08-03T10:38:22;99285.69;;;36.72;29.49
8416;BME280;4245;42.120;24.732;2022-08-03T10:40:53;99282.06;;;36.31;30.27
8416;BME280;4245;42.120;24.732;2022-08-03T10:43:24;99274.19;;;35.97;30.66
8416;BME280;4245;42.120;24.732;2022-08-03T10:45:52;99279.28;;;36.21;30.63
8416;BME280;4245;42.120;24.732;2022-08-03T10:48:19;99273.69;;;36.00;31.14
8416;BME280;4245;42.120;24.732;2022-08-03T10:50:49;99278.59;;;35.83;31.28
8416;BME280;4245;42.120;24.732;2022-08-03T10:53:33;99275.31;;;35.91;31.22
8416;BME280;4245;42.120;24.732;2022-08-03T10:56:00;99269.84;;;36.11;31.09
8416;BME280;4245;42.120;24.732;2022-08-03T10:58:49;99270.69;;;36.32;31.06
8416;BME280;4245;42.120;24.732;2022-08-03T11:01:17;99262.72;;;36.36;30.55
8416;BME280;4245;42.120;24.732;2022-08-03T11:04:16;99262.69;;;36.41;30.57
8416;BME280;4245;42.120;24.732;2022-08-03T11:06:45;99259.22;;;35.73;31.55
8416;BME280;4245;42.120;24.732;2022-08-03T11:09:18;99257.31;;;35.89;31.44
8416;BME280;4245;42.120;24.732;2022-08-03T11:11:47;99260.78;;;36.77;30.21
8416;BME280;4245;42.120;24.732;2022-08-03T11:14:16;99259.44;;;37.69;29.31
8416;BME280;4245;42.120;24.732;2022-08-03T11:16:45;99255.41;;;38.39;28.03
8416;BME280;4245;42.120;24.732;2022-08-03T11:19:15;99249.41;;;38.22;28.09
8416;BME280;4245;42.120;24.732;2022-08-03T11:21:58;99245.75;;;37.82;28.37
8416;BME280;4245;42.120;24.732;2022-08-03T11:24:59;99255.44;;;38.34;27.90
8416;BME280;4245;42.120;24.732;2022-08-03T11:27:27;99245.25;;;38.92;27.19
8416;BME280;4245;42.120;24.732;2022-08-03T11:29:57;99237.78;;;39.83;25.76
8416;BME280;4245;42.120;24.732;2022-08-03T11:32:58;99235.91;;;40.34;25.65
8416;BME280;4245;42.120;24.732;2022-08-03T11:35:28;99237.00;;;40.85;24.61
8416;BME280;4245;42.120;24.732;2022-08-03T11:38:07;99233.81;;;40.59;24.96
8416;BME280;4245;42.120;24.732;2022-08-03T11:40:37;99237.47;;;41.33;24.25
8416;BME280;4245;42.120;24.732;2022-08-03T11:43:06;99231.94;;;41.96;23.43
8416;BME280;4245;42.120;24.732;2022-08-03T11:45:33;99227.72;;;42.87;22.72
8416;BME280;4245;42.120;24.732;2022-08-03T11:48:12;99238.06;;;42.87;22.04
8416;BME280;4245;42.120;24.732;2022-08-03T11:50:40;99228.59;;;41.58;23.19
8416;BME280;4245;42.120;24.732;2022-08-03T11:53:15;99220.72;;;39.89;24.76
8416;BME280;4245;42.120;24.732;2022-08-03T11:55:42;99218.31;;;39.17;25.87
8416;BME280;4245;42.120;24.732;2022-08-03T11:58:17;99214.22;;;39.09;25.70
8416;BME280;4245;42.120;24.732;2022-08-03T12:00:44;99209.81;;;39.27;25.21
8416;BME280;4245;42.120;24.732;2022-08-03T12:03:12;99214.47;;;39.36;25.41
8416;BME280;4245;42.120;24.732;2022-08-03T12:05:46;99214.53;;;39.55;24.83
8416;BME280;4245;42.120;24.732;2022-08-03T12:08:16;99217.84;;;39.76;24.43
8416;BME280;4245;42.120;24.732;2022-08-03T12:10:49;99204.88;;;39.66;24.30
8416;BME280;4245;42.120;24.732;2022-08-03T12:13:17;99207.16;;;39.45;25.16
8416;BME280;4245;42.120;24.732;2022-08-03T12:15:50;99201.75;;;39.06;24.75
8416;BME280;4245;42.120;24.732;2022-08-03T12:18:18;99203.94;;;38.57;25.56
8416;BME280;4245;42.120;24.732;2022-08-03T12:20:47;99203.47;;;38.40;25.98
8416;BME280;4245;42.120;24.732;2022-08-03T12:23:16;99192.56;;;38.19;26.18
8416;BME280;4245;42.120;24.732;2022-08-03T12:25:44;99192.09;;;38.07;26.13
8416;BME280;4245;42.120;24.732;2022-08-03T12:28:14;99199.34;;;38.03;26.23
8416;BME280;4245;42.120;24.732;2022-08-03T12:30:46;99192.72;;;37.99;27.03
8416;BME280;4245;42.120;24.732;2022-08-03T12:33:16;99199.50;;;37.78;27.05
8416;BME280;4245;42.120;24.732;2022-08-03T12:35:45;99195.09;;;37.67;26.77
8416;BME280;4245;42.120;24.732;2022-08-03T12:38:12;99191.72;;;37.80;26.48
8416;BME280;4245;42.120;24.732;2022-08-03T12:40:40;99196.44;;;37.79;26.06
8416;BME280;4245;42.120;24.732;2022-08-03T12:43:12;99194.81;;;38.17;25.92
8416;BME280;4245;42.120;24.732;2022-08-03T12:45:39;99193.84;;;38.32;25.52
8416;BME280;4245;42.120;24.732;2022-08-03T12:48:08;99193.22;;;38.98;24.75
8416;BME280;4245;42.120;24.732;2022-08-03T12:50:37;99191.63;;;39.82;23.68
8416;BME280;4245;42.120;24.732;2022-08-03T12:53:08;99187.69;;;40.20;23.05
8416;BME280;4245;42.120;24.732;2022-08-03T12:55:36;99189.09;;;40.36;22.44
8416;BME280;4245;42.120;24.732;2022-08-03T12:58:06;99187.78;;;40.48;22.25
8416;BME280;4245;42.120;24.732;2022-08-03T13:00:35;99183.63;;;40.91;22.44
8416;BME280;4245;42.120;24.732;2022-08-03T13:03:05;99184.53;;;41.05;21.99
8416;BME280;4245;42.120;24.732;2022-08-03T13:05:41;99183.78;;;41.27;22.08
8416;BME280;4245;42.120;24.732;2022-08-03T13:08:17;99175.31;;;41.32;21.71
8416;BME280;4245;42.120;24.732;2022-08-03T13:10:45;99172.69;;;41.99;21.12
8416;BME280;4245;42.120;24.732;2022-08-03T13:13:13;99166.63;;;42.19;20.77
8416;BME280;4245;42.120;24.732;2022-08-03T13:15:41;99179.63;;;42.46;20.51
8416;BME280;4245;42.120;24.732;2022-08-03T13:18:08;99170.34;;;42.59;20.41
8416;BME280;4245;42.120;24.732;2022-08-03T13:20:35;99164.84;;;42.45;20.55
8416;BME280;4245;42.120;24.732;2022-08-03T13:23:02;99159.56;;;41.99;20.83
8416;BME280;4245;42.120;24.732;2022-08-03T13:25:29;99166.84;;;41.51;21.66
8416;BME280;4245;42.120;24.732;2022-08-03T13:27:56;99165.88;;;40.73;21.79